Time;durP1;ratioP1;P1;durP2;ratioP2;P2;SDS_P1;SDS_P2;PMS_P1;PMS_P2;Temp;Humidity;BMP_temperature;BMP_pressure;BME280_temperature;BME280_humidity;BME280_pressure;Samples;Min_cycle;Max_cycle;Signal;HPM_P1;HPM_P2
2022/09/01 00:01:38;;;;;;;;;;;20.10;99.90;;;;;;5047783;28;19912;-80
2022/09/01 00:04:04;;;;;;;;;;;20.10;99.90;;;;;;5052418;28;19913;-82
2022/09/01 00:06:31;;;;;;;;;;;20.00;99.90;;;;;;5053625;28;20421;-72
2022/09/01 00:08:58;;;;;;;;;;;20.10;99.90;;;;;;5059306;28;19909;-72
2022/09/01 00:11:24;;;;;;;;;;;20.10;99.90;;;;;;5058299;28;19916;-81
2022/09/01 00:13:50;;;;;;;;;;;20.10;99.90;;;;;;5044772;28;19955;-81
2022/09/01 00:16:17;;;;;;;;;;;20.10;99.90;;;;;;5050660;28;19909;-82
2022/09/01 00:18:48;;;;;;;;;;;20.10;99.90;;;;;;5053045;28;19913;-72
2022/09/01 00:21:14;;;;;;;;;;;20.10;99.90;;;;;;5052837;28;19917;-72
2022/09/01 00:23:40;;;;;;;;;;;20.10;99.90;;;;;;5052817;28;19909;-82
2022/09/01 00:26:05;;;;;;;;;;;20.10;99.90;;;;;;5061830;28;20241;-82
2022/09/01 00:28:32;;;;;;;;;;;20.10;99.90;;;;;;5052125;28;19908;-82
2022/09/01 00:30:58;;;;;;;;;;;20.10;99.90;;;;;;5052876;28;20006;-72
2022/09/01 00:33:23;;;;;;;;;;;20.10;99.90;;;;;;5053261;28;19952;-72
2022/09/01 00:35:49;;;;;;;;;;;20.10;99.90;;;;;;5052963;28;19909;-81
2022/09/01 00:38:14;;;;;;;;;;;20.10;99.90;;;;;;5053060;28;19910;-82
2022/09/01 00:40:39;;;;;;;;;;;20.00;99.90;;;;;;5053128;28;19913;-81
2022/09/01 00:43:17;;;;;;;;;;;20.00;99.90;;;;;;5044283;28;19909;-82
2022/09/01 00:45:43;;;;;;;;;;;20.00;99.90;;;;;;5050815;28;19917;-72
2022/09/01 00:48:08;;;;;;;;;;;20.00;99.90;;;;;;5061382;28;20280;-81
2022/09/01 00:50:35;;;;;;;;;;;20.00;99.90;;;;;;5062405;28;19920;-80
2022/09/01 00:53:01;;;;;;;;;;;20.00;99.90;;;;;;5052965;28;19957;-82
2022/09/01 00:55:31;;;;;;;;;;;20.00;99.90;;;;;;5053022;28;20438;-82
2022/09/01 00:57:58;;;;;;;;;;;20.00;99.90;;;;;;5052903;28;20003;-82
2022/09/01 01:00:25;;;;;;;;;;;19.90;99.90;;;;;;5046055;28;20429;-72
2022/09/01 01:02:54;;;;;;;;;;;19.90;99.90;;;;;;5052961;28;19999;-72
2022/09/01 01:05:22;;;;;;;;;;;19.90;99.90;;;;;;5054043;28;19909;-82
2022/09/01 01:07:48;;;;;;;;;;;19.80;99.90;;;;;;5056907;28;19916;-82
2022/09/01 01:10:14;;;;;;;;;;;19.80;99.90;;;;;;5067282;28;19909;-82
2022/09/01 01:12:41;;;;;;;;;;;19.80;99.90;;;;;;5056221;28;19913;-72
2022/09/01 01:15:07;;;;;;;;;;;19.80;99.90;;;;;;5044893;28;19909;-72
2022/09/01 01:17:33;;;;;;;;;;;19.90;99.90;;;;;;5056707;28;19916;-82
2022/09/01 01:23:01;;;;;;;;;;;19.90;99.90;;;;;;5056033;28;20335;-82
2022/09/01 01:25:27;;;;;;;;;;;19.90;99.90;;;;;;5061029;28;19916;-72
2022/09/01 01:28:07;;;;;;;;;;;19.90;99.90;;;;;;5058985;28;19913;-82
2022/09/01 01:30:34;;;;;;;;;;;19.90;99.90;;;;;;5056163;28;19951;-82
2022/09/01 01:33:00;;;;;;;;;;;19.90;99.90;;;;;;5056439;28;19995;-82
2022/09/01 01:35:26;;;;;;;;;;;19.90;99.90;;;;;;5056373;28;20331;-81
2022/09/01 01:37:53;;;;;;;;;;;19.80;99.90;;;;;;5055937;28;19955;-72
2022/09/01 01:40:21;;;;;;;;;;;19.80;99.90;;;;;;5056366;28;19920;-72
2022/09/01 01:42:52;;;;;;;;;;;19.80;99.90;;;;;;5049820;28;20288;-72
2022/09/01 01:45:19;;;;;;;;;;;19.70;99.90;;;;;;5050751;28;19915;-81
2022/09/01 01:47:49;;;;;;;;;;;19.80;99.90;;;;;;5061018;28;19915;-82
2022/09/01 01:50:14;;;;;;;;;;;19.70;99.90;;;;;;5067449;28;19919;-72
2022/09/01 01:52:40;;;;;;;;;;;19.70;99.90;;;;;;5051755;28;19913;-72
2022/09/01 01:55:11;;;;;;;;;;;19.70;99.90;;;;;;5056095;28;20360;-72
2022/09/01 01:57:38;;;;;;;;;;;19.60;99.90;;;;;;5055983;28;19969;-82
2022/09/01 02:00:04;;;;;;;;;;;19.60;99.90;;;;;;5048378;28;19920;-79
2022/09/01 02:02:30;;;;;;;;;;;19.60;99.90;;;;;;5055910;28;19912;-73
2022/09/01 02:04:55;;;;;;;;;;;19.60;99.90;;;;;;5055922;28;19916;-72
2022/09/01 02:07:21;;;;;;;;;;;19.60;99.90;;;;;;5055959;28;19909;-72
2022/09/01 02:09:47;;;;;;;;;;;19.50;99.90;;;;;;5067100;28;19913;-81
2022/09/01 02:12:12;;;;;;;;;;;19.50;99.90;;;;;;5054515;28;19912;-82
2022/09/01 02:14:38;;;;;;;;;;;19.50;99.90;;;;;;5044468;28;19913;-81
2022/09/01 02:17:06;;;;;;;;;;;19.50;99.90;;;;;;5055041;28;19912;-72
2022/09/01 02:19:32;;;;;;;;;;;19.50;99.90;;;;;;5055116;28;20372;-82
2022/09/01 02:21:59;;;;;;;;;;;19.50;99.90;;;;;;5055510;28;19920;-82
2022/09/01 02:24:25;;;;;;;;;;;19.50;99.90;;;;;;5054643;28;19909;-72
2022/09/01 02:26:50;;;;;;;;;;;19.50;99.90;;;;;;5063909;28;19908;-82
2022/09/01 02:29:21;;;;;;;;;;;19.50;99.90;;;;;;5054601;28;19958;-72
2022/09/01 02:31:48;;;;;;;;;;;19.50;99.90;;;;;;5054948;28;19928;-72
2022/09/01 02:34:14;;;;;;;;;;;19.50;99.90;;;;;;5053915;28;19909;-81
2022/09/01 02:36:46;;;;;;;;;;;19.60;99.90;;;;;;5055216;28;19909;-72
2022/09/01 02:39:15;;;;;;;;;;;19.60;99.90;;;;;;5055323;28;19944;-81
2022/09/01 02:41:41;;;;;;;;;;;19.60;99.90;;;;;;5055022;28;19920;-72
2022/09/01 02:44:10;;;;;;;;;;;19.50;99.90;;;;;;5042992;28;19908;-72
2022/09/01 02:46:40;;;;;;;;;;;19.50;99.90;;;;;;5054624;28;19999;-82
2022/09/01 02:49:13;;;;;;;;;;;19.60;99.90;;;;;;5066384;28;19915;-81
2022/09/01 02:51:42;;;;;;;;;;;19.60;99.90;;;;;;5057546;28;19913;-81
2022/09/01 02:54:08;;;;;;;;;;;19.60;99.90;;;;;;5053533;28;19913;-81
2022/09/01 02:56:34;;;;;;;;;;;19.60;99.90;;;;;;5055043;28;19989;-81
2022/09/01 02:59:00;;;;;;;;;;;19.60;99.90;;;;;;5047844;28;19909;-81
2022/09/01 03:01:28;;;;;;;;;;;19.60;99.90;;;;;;5052948;28;20371;-71
2022/09/01 03:03:55;;;;;;;;;;;19.60;99.90;;;;;;5054609;28;19939;-81
2022/09/01 03:06:22;;;;;;;;;;;19.60;99.90;;;;;;5055129;28;19978;-82
2022/09/01 03:08:52;;;;;;;;;;;19.60;99.90;;;;;;5059345;28;19913;-72
2022/09/01 03:11:18;;;;;;;;;;;19.70;99.90;;;;;;5060394;28;19916;-82
2022/09/01 03:13:43;;;;;;;;;;;19.70;99.90;;;;;;5047352;28;20284;-82
2022/09/01 03:16:09;;;;;;;;;;;19.70;99.90;;;;;;5050823;28;19909;-72
2022/09/01 03:18:36;;;;;;;;;;;19.70;99.90;;;;;;5054071;28;19909;-81
2022/09/01 03:21:01;;;;;;;;;;;19.70;99.90;;;;;;5054411;28;19962;-81
2022/09/01 03:23:28;;;;;;;;;;;19.80;99.90;;;;;;5053898;28;19909;-72
2022/09/01 03:25:54;;;;;;;;;;;19.80;99.90;;;;;;5063081;28;19916;-81
2022/09/01 03:28:20;;;;;;;;;;;19.80;99.90;;;;;;5054295;28;19909;-82
2022/09/01 03:30:47;;;;;;;;;;;19.80;99.90;;;;;;5054008;28;19925;-81
2022/09/01 03:33:13;;;;;;;;;;;19.90;99.90;;;;;;5054104;28;19912;-71
2022/09/01 03:35:39;;;;;;;;;;;19.90;99.90;;;;;;5054059;28;19909;-79
2022/09/01 03:38:05;;;;;;;;;;;19.90;99.90;;;;;;5054487;28;20319;-72
2022/09/01 03:40:32;;;;;;;;;;;19.90;99.90;;;;;;5054010;28;19913;-82
2022/09/01 03:43:01;;;;;;;;;;;19.90;99.90;;;;;;5047182;28;19910;-82
2022/09/01 03:45:28;;;;;;;;;;;19.90;99.90;;;;;;5049800;28;19908;-82
2022/09/01 03:47:54;;;;;;;;;;;19.90;99.90;;;;;;5059928;28;19908;-72
2022/09/01 03:50:21;;;;;;;;;;;19.90;99.90;;;;;;5065642;28;19919;-82
2022/09/01 03:52:48;;;;;;;;;;;19.90;99.90;;;;;;5048118;28;19963;-82
2022/09/01 03:55:22;;;;;;;;;;;19.80;99.90;;;;;;5053959;28;19912;-80
2022/09/01 03:57:50;;;;;;;;;;;19.80;99.90;;;;;;5053731;28;19916;-82
2022/09/01 04:00:21;;;;;;;;;;;19.80;99.90;;;;;;5047570;28;19966;-72
2022/09/01 04:02:51;;;;;;;;;;;19.80;99.90;;;;;;5053603;28;19955;-71
2022/09/01 04:05:19;;;;;;;;;;;19.70;99.90;;;;;;5053608;28;20391;-81
2022/09/01 04:07:45;;;;;;;;;;;19.70;99.90;;;;;;5053797;28;19974;-81
2022/09/01 04:10:11;;;;;;;;;;;19.70;99.90;;;;;;5063258;28;20380;-81
2022/09/01 04:12:37;;;;;;;;;;;19.70;99.90;;;;;;5053186;28;19924;-71
2022/09/01 04:15:03;;;;;;;;;;;19.70;99.90;;;;;;5042098;28;19913;-72
2022/09/01 04:20:14;;;;;;;;;;;19.70;99.90;;;;;;5053034;28;19965;-82
2022/09/01 04:22:39;;;;;;;;;;;19.70;99.90;;;;;;5053291;28;19998;-82
2022/09/01 04:25:05;;;;;;;;;;;19.70;99.90;;;;;;5055251;28;19963;-82
2022/09/01 04:27:31;;;;;;;;;;;19.70;99.90;;;;;;5059153;28;19930;-72
2022/09/01 04:29:56;;;;;;;;;;;19.70;99.90;;;;;;5052718;28;19975;-72
2022/09/01 04:32:23;;;;;;;;;;;19.70;99.90;;;;;;5053332;28;20430;-81
2022/09/01 04:34:48;;;;;;;;;;;19.70;99.90;;;;;;5053275;28;19915;-81
2022/09/01 04:37:19;;;;;;;;;;;19.60;99.90;;;;;;5051074;28;20346;-82
2022/09/01 04:39:51;;;;;;;;;;;19.60;99.90;;;;;;5052346;28;19909;-71
2022/09/01 04:42:19;;;;;;;;;;;19.60;99.90;;;;;;5050943;28;19963;-81
2022/09/01 04:44:45;;;;;;;;;;;19.60;99.90;;;;;;5042926;28;19912;-82
2022/09/01 04:47:15;;;;;;;;;;;19.60;99.90;;;;;;5053192;28;19963;-81
2022/09/01 04:49:42;;;;;;;;;;;19.60;99.90;;;;;;5066868;28;19909;-82
2022/09/01 04:52:07;;;;;;;;;;;19.60;99.90;;;;;;5055422;28;19913;-73
2022/09/01 04:54:35;;;;;;;;;;;19.60;99.90;;;;;;5052871;28;19913;-72
2022/09/01 04:57:01;;;;;;;;;;;19.60;99.90;;;;;;5053155;28;20363;-82
2022/09/01 04:59:28;;;;;;;;;;;19.50;99.90;;;;;;5046399;28;19916;-82
2022/09/01 05:01:56;;;;;;;;;;;19.50;99.90;;;;;;5052760;28;19919;-82
2022/09/01 05:04:23;;;;;;;;;;;19.50;99.90;;;;;;5052735;28;19908;-71
2022/09/01 05:06:50;;;;;;;;;;;19.50;99.90;;;;;;5051468;28;19909;-82
2022/09/01 05:09:16;;;;;;;;;;;19.40;99.90;;;;;;5061291;28;19908;-82
2022/09/01 05:11:44;;;;;;;;;;;19.50;99.90;;;;;;5055013;28;19913;-71
2022/09/01 05:14:10;;;;;;;;;;;19.40;99.90;;;;;;5041335;28;19952;-81
2022/09/01 05:16:39;;;;;;;;;;;19.40;99.90;;;;;;5052117;28;20445;-81
2022/09/01 05:19:06;;;;;;;;;;;19.30;99.90;;;;;;5052391;28;20330;-71
2022/09/01 05:21:32;;;;;;;;;;;19.30;99.90;;;;;;5052691;28;19959;-81
2022/09/01 05:23:59;;;;;;;;;;;19.30;99.90;;;;;;5052501;28;19912;-71
2022/09/01 05:26:30;;;;;;;;;;;19.30;99.90;;;;;;5060524;28;19909;-81
2022/09/01 05:29:02;;;;;;;;;;;19.20;99.90;;;;;;5052650;28;19909;-81
2022/09/01 05:31:33;;;;;;;;;;;19.20;99.90;;;;;;5052546;28;19920;-72
2022/09/01 05:34:00;;;;;;;;;;;19.20;99.90;;;;;;5050121;28;20284;-71
2022/09/01 05:36:27;;;;;;;;;;;19.20;99.90;;;;;;5047190;28;19909;-80
2022/09/01 05:38:53;;;;;;;;;;;19.20;99.90;;;;;;5046229;28;19936;-82
2022/09/01 05:41:19;;;;;;;;;;;19.30;99.90;;;;;;5052273;28;20391;-81
2022/09/01 05:43:48;;;;;;;;;;;19.30;99.90;;;;;;5037636;28;19909;-71
2022/09/01 05:46:15;;;;;;;;;;;19.20;99.90;;;;;;5048661;28;19937;-71
2022/09/01 05:48:45;;;;;;;;;;;19.30;99.90;;;;;;5046153;28;19955;-82
2022/09/01 05:51:15;;;;;;;;;;;19.30;99.90;;;;;;5049581;28;19913;-81
2022/09/01 05:53:41;;;;;;;;;;;19.30;99.90;;;;;;5053943;28;19974;-82
2022/09/01 05:56:08;;;;;;;;;;;19.20;99.90;;;;;;5055927;28;20031;-82
2022/09/01 05:58:34;;;;;;;;;;;19.10;99.90;;;;;;5052889;28;20434;-71
2022/09/01 06:01:00;;;;;;;;;;;19.10;99.90;;;;;;5054198;28;19917;-72
2022/09/01 06:03:26;;;;;;;;;;;19.10;99.90;;;;;;5055722;28;19963;-80
2022/09/01 06:05:54;;;;;;;;;;;19.00;99.90;;;;;;5055181;28;20449;-81
2022/09/01 06:08:21;;;;;;;;;;;19.00;99.90;;;;;;5056028;28;19908;-81
2022/09/01 06:10:49;;;;;;;;;;;19.10;99.90;;;;;;5066306;28;19912;-71
2022/09/01 06:13:16;;;;;;;;;;;19.10;99.90;;;;;;5051872;28;19913;-81
2022/09/01 06:15:43;;;;;;;;;;;19.10;99.90;;;;;;5046816;28;19999;-81
2022/09/01 06:18:11;;;;;;;;;;;19.20;99.90;;;;;;5055130;28;19909;-81
2022/09/01 06:20:39;;;;;;;;;;;19.30;99.90;;;;;;5043726;28;19928;-81
2022/09/01 06:23:05;;;;;;;;;;;19.30;99.90;;;;;;5043069;28;19921;-71
2022/09/01 06:25:31;;;;;;;;;;;19.40;99.90;;;;;;5052110;28;19931;-71
2022/09/01 06:27:57;;;;;;;;;;;19.50;99.90;;;;;;5041832;28;19909;-81
2022/09/01 06:30:25;;;;;;;;;;;19.50;99.90;;;;;;5045238;28;19927;-81
2022/09/01 06:32:52;;;;;;;;;;;19.50;99.90;;;;;;5046057;28;19959;-72
2022/09/01 06:35:17;;;;;;;;;;;19.60;99.90;;;;;;5045679;28;19913;-81
2022/09/01 06:37:44;;;;;;;;;;;19.60;99.90;;;;;;5051569;28;19920;-82
2022/09/01 06:40:16;;;;;;;;;;;19.50;99.90;;;;;;5053179;28;20295;-80
2022/09/01 06:42:46;;;;;;;;;;;19.50;99.90;;;;;;5051657;28;20390;-81
2022/09/01 06:45:13;;;;;;;;;;;19.50;99.90;;;;;;5047130;28;19999;-81
2022/09/01 06:47:42;;;;;;;;;;;19.50;99.90;;;;;;5056358;28;19909;-81
2022/09/01 06:50:08;;;;;;;;;;;19.50;99.90;;;;;;5049861;28;19921;-81
2022/09/01 06:52:33;;;;;;;;;;;19.50;99.90;;;;;;5051347;28;19917;-71
2022/09/01 06:54:59;;;;;;;;;;;19.60;99.90;;;;;;5048150;28;19909;-80
2022/09/01 06:57:26;;;;;;;;;;;19.60;99.90;;;;;;5041185;28;19909;-80
2022/09/01 06:59:52;;;;;;;;;;;19.80;99.90;;;;;;5051207;28;20054;-78
2022/09/01 07:02:18;;;;;;;;;;;19.90;99.90;;;;;;5049464;28;19917;-81
2022/09/01 07:04:44;;;;;;;;;;;20.00;99.90;;;;;;5054066;28;19915;-72
2022/09/01 07:07:11;;;;;;;;;;;20.00;99.90;;;;;;5053539;28;19909;-81
2022/09/01 07:09:37;;;;;;;;;;;20.20;99.90;;;;;;5065134;28;19943;-81
2022/09/01 07:12:03;;;;;;;;;;;20.20;99.90;;;;;;5054342;28;19917;-72
2022/09/01 07:14:29;;;;;;;;;;;20.40;99.90;;;;;;5044849;28;20383;-72
2022/09/01 07:16:56;;;;;;;;;;;20.60;99.90;;;;;;5052440;28;19917;-81
2022/09/01 07:19:21;;;;;;;;;;;20.90;99.90;;;;;;5045609;28;20327;-80
2022/09/01 07:21:47;;;;;;;;;;;21.00;99.90;;;;;;5052839;28;19916;-81
2022/09/01 07:24:14;;;;;;;;;;;21.10;99.90;;;;;;5051206;28;20342;-81
2022/09/01 07:26:41;;;;;;;;;;;21.30;99.90;;;;;;5056510;28;19963;-81
2022/09/01 07:29:08;;;;;;;;;;;21.40;99.90;;;;;;5047891;28;19909;-72
2022/09/01 07:31:37;;;;;;;;;;;21.40;99.90;;;;;;5048590;28;20007;-72
2022/09/01 07:34:04;;;;;;;;;;;21.30;99.90;;;;;;5050017;28;19964;-82
2022/09/01 07:36:31;;;;;;;;;;;21.30;99.90;;;;;;5049524;28;19916;-82
2022/09/01 07:38:56;;;;;;;;;;;21.50;99.90;;;;;;5053869;28;19909;-80
2022/09/01 07:41:23;;;;;;;;;;;21.70;99.90;;;;;;5045159;28;20413;-72
2022/09/01 07:43:51;;;;;;;;;;;21.70;99.90;;;;;;5051884;28;20380;-72
2022/09/01 07:46:18;;;;;;;;;;;21.70;99.90;;;;;;5052120;28;19909;-81
2022/09/01 07:48:44;;;;;;;;;;;21.80;99.90;;;;;;5049895;28;20394;-80
2022/09/01 07:51:11;;;;;;;;;;;21.80;99.90;;;;;;5059799;28;20055;-81
2022/09/01 07:53:37;;;;;;;;;;;21.80;99.90;;;;;;5048155;28;19913;-72
2022/09/01 07:56:08;;;;;;;;;;;21.70;99.90;;;;;;5053428;28;19917;-72
2022/09/01 07:58:34;;;;;;;;;;;21.70;99.90;;;;;;5050505;28;20368;-82
2022/09/01 08:01:01;;;;;;;;;;;21.70;99.90;;;;;;5048883;28;19928;-72
2022/09/01 08:03:27;;;;;;;;;;;22.90;99.90;;;;;;5053163;28;20364;-81
2022/09/01 08:05:56;;;;;;;;;;;25.30;99.90;;;;;;5048225;28;19920;-73
2022/09/01 08:08:22;;;;;;;;;;;27.20;99.90;;;;;;5043289;28;20300;-73
2022/09/01 08:10:48;;;;;;;;;;;28.70;99.90;;;;;;5047762;28;19919;-72
2022/09/01 08:13:14;;;;;;;;;;;29.80;99.90;;;;;;5049961;28;19916;-82
2022/09/01 08:15:40;;;;;;;;;;;30.60;99.90;;;;;;5047239;28;19935;-82
2022/09/01 08:18:06;;;;;;;;;;;31.50;99.20;;;;;;5051401;28;19909;-73
2022/09/01 08:20:36;;;;;;;;;;;31.80;98.30;;;;;;5037459;28;19913;-72
2022/09/01 08:23:02;;;;;;;;;;;32.30;97.60;;;;;;5031960;28;20448;-73
2022/09/01 08:25:28;;;;;;;;;;;31.90;97.60;;;;;;5044004;28;19939;-81
2022/09/01 08:27:54;;;;;;;;;;;32.30;97.00;;;;;;5052437;28;19956;-82
2022/09/01 08:30:19;;;;;;;;;;;32.70;97.10;;;;;;5041109;28;19963;-82
2022/09/01 08:32:45;;;;;;;;;;;32.30;96.60;;;;;;5049384;28;20016;-73
2022/09/01 08:35:11;;;;;;;;;;;32.10;96.80;;;;;;5042338;28;19913;-73
2022/09/01 08:37:37;;;;;;;;;;;32.30;96.40;;;;;;5043007;28;20386;-82
2022/09/01 08:40:04;;;;;;;;;;;32.30;96.30;;;;;;5051588;28;19916;-83
2022/09/01 08:42:38;;;;;;;;;;;32.20;96.00;;;;;;5047080;28;19977;-82
2022/09/01 08:45:03;;;;;;;;;;;33.00;95.80;;;;;;5053179;28;20394;-82
2022/09/01 08:47:30;;;;;;;;;;;32.80;95.70;;;;;;5051759;28;19916;-80
2022/09/01 08:49:56;;;;;;;;;;;33.20;95.20;;;;;;5055152;28;20351;-81
2022/09/01 08:52:22;;;;;;;;;;;33.40;95.00;;;;;;5051408;28;19913;-81
2022/09/01 08:54:49;;;;;;;;;;;33.90;94.50;;;;;;5051575;28;19909;-82
2022/09/01 08:57:24;;;;;;;;;;;33.50;94.20;;;;;;5038493;28;19916;-80
2022/09/01 08:59:50;;;;;;;;;;;33.80;94.20;;;;;;5042341;28;19924;-78
2022/09/01 09:02:24;;;;;;;;;;;34.40;94.10;;;;;;5045463;28;19913;-80
2022/09/01 09:05:08;;;;;;;;;;;34.40;93.70;;;;;;5033648;28;19909;-81
2022/09/01 09:07:53;;;;;;;;;;;34.20;93.70;;;;;;5047479;28;20379;-79
2022/09/01 09:10:25;;;;;;;;;;;33.70;93.60;;;;;;5061000;28;20303;-80
2022/09/01 09:13:26;;;;;;;;;;;34.50;93.20;;;;;;5052127;28;19916;-72
2022/09/01 09:15:59;;;;;;;;;;;34.80;93.40;;;;;;5068086;28;19916;-79
2022/09/01 09:18:48;;;;;;;;;;;32.90;94.20;;;;;;5051055;28;20279;-81
2022/09/01 09:21:16;;;;;;;;;;;33.00;94.20;;;;;;5049183;28;19917;-83
2022/09/01 09:23:44;;;;;;;;;;;34.10;93.40;;;;;;5042082;28;20091;-72
2022/09/01 09:26:10;;;;;;;;;;;34.80;92.80;;;;;;5054222;28;19964;-72
2022/09/01 09:28:37;;;;;;;;;;;35.20;92.30;;;;;;5053437;28;19958;-81
2022/09/01 09:31:21;;;;;;;;;;;35.30;92.20;;;;;;5043929;28;19924;-82
2022/09/01 09:33:47;;;;;;;;;;;34.70;92.40;;;;;;5054093;28;19919;-83
2022/09/01 09:36:19;;;;;;;;;;;33.30;93.60;;;;;;5054180;28;20198;-73
2022/09/01 09:38:45;;;;;;;;;;;34.10;92.70;;;;;;5053390;28;19909;-72
2022/09/01 09:41:15;;;;;;;;;;;34.70;92.20;;;;;;5055221;28;19931;-72
2022/09/01 09:43:47;;;;;;;;;;;35.00;92.40;;;;;;5041746;28;19920;-73
2022/09/01 09:46:23;;;;;;;;;;;35.40;91.50;;;;;;5049797;28;20356;-80
2022/09/01 09:49:09;;;;;;;;;;;35.70;91.20;;;;;;5066842;28;19912;-72
2022/09/01 09:51:35;;;;;;;;;;;35.50;91.10;;;;;;5065017;28;19913;-80
2022/09/01 09:54:12;;;;;;;;;;;35.20;91.50;;;;;;5053915;28;19920;-72
2022/09/01 09:56:40;;;;;;;;;;;35.30;91.80;;;;;;5055214;28;19945;-83
2022/09/01 09:59:22;;;;;;;;;;;35.60;91.00;;;;;;5047318;28;19917;-82
2022/09/01 10:01:50;;;;;;;;;;;35.10;90.90;;;;;;5054703;28;19917;-82
2022/09/01 10:04:35;;;;;;;;;;;33.30;92.70;;;;;;5054360;28;19909;-71
2022/09/01 10:07:01;;;;;;;;;;;34.00;92.40;;;;;;5052051;28;19915;-71
2022/09/01 10:09:26;;;;;;;;;;;34.70;91.60;;;;;;5053137;28;20307;-71
2022/09/01 10:11:54;;;;;;;;;;;34.50;91.80;;;;;;5053881;28;19916;-71
2022/09/01 10:14:29;;;;;;;;;;;34.70;91.80;;;;;;5041703;28;19917;-81
2022/09/01 10:16:59;;;;;;;;;;;35.10;91.60;;;;;;5053529;28;20392;-72
2022/09/01 10:19:26;;;;;;;;;;;34.40;91.50;;;;;;5050136;28;19913;-72
2022/09/01 10:21:52;;;;;;;;;;;33.20;91.90;;;;;;5040879;28;19921;-72
2022/09/01 10:24:21;;;;;;;;;;;33.00;92.20;;;;;;5044239;28;19917;-83
2022/09/01 10:26:50;;;;;;;;;;;31.70;93.20;;;;;;5063292;28;19916;-84
2022/09/01 10:29:19;;;;;;;;;;;31.40;93.80;;;;;;5043554;28;20352;-74
2022/09/01 10:31:45;;;;;;;;;;;30.50;95.00;;;;;;5040355;28;19929;-74
2022/09/01 10:34:14;;;;;;;;;;;30.70;95.10;;;;;;5043218;28;19916;-73
2022/09/01 10:36:40;;;;;;;;;;;30.70;94.30;;;;;;5043078;28;19913;-85
2022/09/01 10:39:09;;;;;;;;;;;30.70;93.90;;;;;;5049149;28;19913;-85
2022/09/01 10:41:56;;;;;;;;;;;30.40;94.10;;;;;;5053168;28;19966;-85
2022/09/01 10:44:29;;;;;;;;;;;30.20;94.20;;;;;;5055837;28;20398;-73
2022/09/01 10:46:56;;;;;;;;;;;30.40;94.20;;;;;;5052816;28;20007;-85
2022/09/01 10:49:27;;;;;;;;;;;30.60;94.10;;;;;;5063407;28;19920;-84
2022/09/01 10:51:54;;;;;;;;;;;30.50;94.30;;;;;;5056458;28;19921;-83
2022/09/01 10:54:38;;;;;;;;;;;30.00;94.60;;;;;;5048705;28;19916;-85
2022/09/01 10:57:20;;;;;;;;;;;29.90;94.80;;;;;;5043000;28;19935;-73
2022/09/01 10:59:45;;;;;;;;;;;29.90;94.40;;;;;;5050702;28;19912;-85
2022/09/01 11:02:11;;;;;;;;;;;30.00;94.10;;;;;;5052742;28;19923;-84
2022/09/01 11:04:38;;;;;;;;;;;30.20;93.90;;;;;;5054436;28;19954;-85
2022/09/01 11:07:05;;;;;;;;;;;30.20;93.70;;;;;;5054115;28;19913;-84
2022/09/01 11:09:37;;;;;;;;;;;30.10;94.00;;;;;;5062227;28;19909;-73
2022/09/01 11:12:21;;;;;;;;;;;29.50;94.40;;;;;;5040273;28;19909;-74
2022/09/01 11:14:52;;;;;;;;;;;29.30;94.70;;;;;;5050905;28;19980;-73
2022/09/01 11:17:19;;;;;;;;;;;29.30;94.70;;;;;;5054024;28;19913;-85
2022/09/01 11:20:10;;;;;;;;;;;29.50;94.50;;;;;;5046664;28;19923;-85
2022/09/01 11:22:39;;;;;;;;;;;29.70;94.60;;;;;;5033727;28;20372;-75
2022/09/01 11:25:24;;;;;;;;;;;30.40;93.30;;;;;;5046983;28;19916;-74
2022/09/01 11:27:50;;;;;;;;;;;30.90;92.40;;;;;;5057128;28;19912;-82
2022/09/01 11:30:34;;;;;;;;;;;29.70;92.80;;;;;;5045115;28;20489;-85
2022/09/01 11:33:11;;;;;;;;;;;29.50;94.20;;;;;;5049255;28;19915;-86
2022/09/01 11:35:37;;;;;;;;;;;30.00;94.20;;;;;;5052259;28;19913;-73
2022/09/01 11:38:04;;;;;;;;;;;31.00;94.40;;;;;;5053345;28;19959;-75
2022/09/01 11:40:31;;;;;;;;;;;31.00;93.80;;;;;;5052885;28;19913;-87
2022/09/01 11:42:57;;;;;;;;;;;30.50;94.70;;;;;;5045665;28;19909;-74
2022/09/01 11:45:35;;;;;;;;;;;30.30;94.20;;;;;;5047156;28;19917;-87
2022/09/01 11:48:05;;;;;;;;;;;29.70;94.30;;;;;;5058537;28;19939;-85
2022/09/01 11:50:31;;;;;;;;;;;29.40;94.40;;;;;;5059608;28;19916;-74
2022/09/01 11:52:59;;;;;;;;;;;29.40;94.60;;;;;;5043373;28;20391;-85
2022/09/01 11:55:28;;;;;;;;;;;29.30;94.70;;;;;;5045923;28;20032;-86
2022/09/01 11:57:54;;;;;;;;;;;29.00;94.00;;;;;;5052986;28;20409;-84
2022/09/01 12:00:30;;;;;;;;;;;28.80;94.30;;;;;;5052053;28;20102;-73
2022/09/01 12:02:56;;;;;;;;;;;29.00;94.50;;;;;;5052944;28;19909;-73
2022/09/01 12:05:27;;;;;;;;;;;29.00;94.60;;;;;;5048372;28;19935;-85
2022/09/01 12:07:53;;;;;;;;;;;29.30;94.40;;;;;;5046780;28;19983;-82
2022/09/01 12:10:31;;;;;;;;;;;28.80;94.00;;;;;;5061174;28;19925;-84
2022/09/01 12:13:01;;;;;;;;;;;29.00;94.00;;;;;;5051212;28;19959;-74
2022/09/01 12:15:27;;;;;;;;;;;29.20;94.50;;;;;;5052367;28;20011;-85
2022/09/01 12:18:07;;;;;;;;;;;28.70;94.70;;;;;;5053993;28;19916;-83
2022/09/01 12:20:34;;;;;;;;;;;28.40;94.80;;;;;;5046949;28;19954;-85
2022/09/01 12:23:01;;;;;;;;;;;28.40;94.90;;;;;;5054825;28;20411;-84
2022/09/01 12:25:28;;;;;;;;;;;28.20;95.20;;;;;;5061571;28;19913;-84
2022/09/01 12:27:54;;;;;;;;;;;28.40;94.70;;;;;;5045492;28;20367;-74
2022/09/01 12:30:20;;;;;;;;;;;28.60;94.90;;;;;;5052980;28;20058;-87
2022/09/01 12:32:46;;;;;;;;;;;28.90;94.70;;;;;;5065096;28;20294;-74
2022/09/01 12:35:19;;;;;;;;;;;28.60;94.40;;;;;;5062072;28;19917;-86
2022/09/01 12:37:45;;;;;;;;;;;28.30;94.80;;;;;;5051320;28;20000;-85
2022/09/01 12:40:40;;;;;;;;;;;28.50;94.40;;;;;;5051850;28;19919;-74
2022/09/01 12:43:05;;;;;;;;;;;28.20;94.80;;;;;;5049581;28;19921;-74
2022/09/01 12:45:35;;;;;;;;;;;28.30;94.40;;;;;;5052163;28;19931;-87
2022/09/01 12:48:00;;;;;;;;;;;28.40;94.10;;;;;;5058808;28;20414;-82
2022/09/01 12:50:26;;;;;;;;;;;28.50;94.20;;;;;;5061069;28;20011;-75
2022/09/01 12:52:57;;;;;;;;;;;28.50;94.40;;;;;;5060003;28;20054;-74
2022/09/01 12:55:27;;;;;;;;;;;29.50;94.50;;;;;;5057505;28;19922;-85
2022/09/01 12:57:54;;;;;;;;;;;30.30;93.50;;;;;;5053804;28;19913;-83
2022/09/01 13:00:22;;;;;;;;;;;29.90;92.80;;;;;;5050290;28;19909;-86
2022/09/01 13:02:49;;;;;;;;;;;29.60;93.50;;;;;;5055247;28;19908;-86
2022/09/01 13:05:21;;;;;;;;;;;29.70;94.50;;;;;;5057157;28;19916;-85
2022/09/01 13:07:47;;;;;;;;;;;29.80;94.70;;;;;;5060480;28;19912;-75
2022/09/01 13:10:13;;;;;;;;;;;29.60;94.50;;;;;;5050052;28;19975;-85
2022/09/01 13:12:42;;;;;;;;;;;29.30;94.60;;;;;;5051190;28;19908;-84
2022/09/01 13:15:08;;;;;;;;;;;29.40;95.30;;;;;;5053221;28;19987;-86
2022/09/01 13:17:33;;;;;;;;;;;29.50;95.40;;;;;;5062184;28;20346;-83
2022/09/01 13:19:59;;;;;;;;;;;29.60;95.00;;;;;;5048225;28;19945;-75
2022/09/01 13:22:25;;;;;;;;;;;29.30;95.10;;;;;;5049608;28;19983;-74
2022/09/01 13:24:50;;;;;;;;;;;29.20;94.90;;;;;;5055531;28;19944;-75
2022/09/01 13:27:16;;;;;;;;;;;28.60;94.80;;;;;;5055426;28;19986;-85
2022/09/01 13:29:41;;;;;;;;;;;28.10;95.10;;;;;;5050132;28;19963;-85
2022/09/01 13:32:07;;;;;;;;;;;28.60;94.90;;;;;;5058653;28;19916;-84
2022/09/01 13:34:34;;;;;;;;;;;29.10;94.20;;;;;;5056728;28;19920;-74
2022/09/01 13:36:59;;;;;;;;;;;28.90;94.30;;;;;;5054480;28;19953;-75
2022/09/01 13:39:25;;;;;;;;;;;29.00;94.30;;;;;;5055552;28;19916;-85
2022/09/01 13:41:50;;;;;;;;;;;29.00;94.30;;;;;;5055119;28;19921;-75
2022/09/01 13:44:17;;;;;;;;;;;29.00;94.20;;;;;;5043136;28;19923;-74
2022/09/01 13:46:43;;;;;;;;;;;28.80;94.00;;;;;;5053804;28;20387;-75
2022/09/01 13:49:08;;;;;;;;;;;28.80;94.00;;;;;;5064732;28;19909;-85
2022/09/01 13:51:35;;;;;;;;;;;28.90;94.50;;;;;;5061848;28;19912;-83
2022/09/01 13:54:01;;;;;;;;;;;29.20;94.00;;;;;;5049632;28;20376;-75
2022/09/01 13:56:27;;;;;;;;;;;29.50;93.80;;;;;;5053861;28;19916;-85
2022/09/01 13:58:52;;;;;;;;;;;29.30;93.70;;;;;;5050288;28;19909;-75
2022/09/01 14:01:18;;;;;;;;;;;29.20;93.30;;;;;;5054540;28;19913;-75
2022/09/01 14:03:43;;;;;;;;;;;29.40;93.30;;;;;;5045969;28;19917;-74
2022/09/01 14:06:09;;;;;;;;;;;29.20;94.20;;;;;;5045049;28;19993;-75
2022/09/01 14:08:34;;;;;;;;;;;29.10;93.70;;;;;;5053460;28;19913;-74
2022/09/01 14:11:00;;;;;;;;;;;29.20;92.80;;;;;;5063021;28;20339;-75
2022/09/01 14:13:25;;;;;;;;;;;29.10;92.80;;;;;;5053683;28;19909;-75
2022/09/01 14:15:52;;;;;;;;;;;29.30;92.60;;;;;;5051108;28;20003;-74
2022/09/01 14:18:18;;;;;;;;;;;29.60;93.00;;;;;;5053287;28;20004;-75
2022/09/01 14:20:45;;;;;;;;;;;29.30;92.90;;;;;;5050376;28;19916;-74
2022/09/01 14:23:12;;;;;;;;;;;29.50;91.90;;;;;;5054825;28;19924;-86
2022/09/01 14:25:40;;;;;;;;;;;29.00;91.90;;;;;;5062032;28;19916;-74
2022/09/01 14:28:06;;;;;;;;;;;29.00;92.00;;;;;;5054970;28;20007;-75